sensor_id;sensor_type;location;lat;lon;timestamp;pressure;altitude;pressure_sealevel;temperature;humidity
18533;BME280;9396;51.510;11.934;2022-12-07T00:01:36;100414.63;;;3.36;100.00
18533;BME280;9396;51.510;11.934;2022-12-07T00:04:04;100404.75;;;3.40;100.00
18533;BME280;9396;51.510;11.934;2022-12-07T00:06:32;100403.25;;;3.48;100.00
18533;BME280;9396;51.510;11.934;2022-12-07T00:08:59;100405.78;;;3.37;100.00
18533;BME280;9396;51.510;11.934;2022-12-07T00:11:26;100402.13;;;3.40;100.00
18533;BME280;9396;51.510;11.934;2022-12-07T00:13:56;100384.72;;;3.50;100.00
18533;BME280;9396;51.510;11.934;2022-12-07T00:16:26;100385.78;;;3.47;100.00
18533;BME280;9396;51.510;11.934;2022-12-07T00:18:53;100379.84;;;3.33;100.00
18533;BME280;9396;51.510;11.934;2022-12-07T00:21:22;100391.41;;;3.30;100.00
18533;BME280;9396;51.510;11.934;2022-12-07T00:23:51;100384.28;;;3.07;100.00
18533;BME280;9396;51.510;11.934;2022-12-07T00:26:20;100391.94;;;3.10;100.00
18533;BME280;9396;51.510;11.934;2022-12-07T00:28:48;100385.13;;;3.20;100.00
18533;BME280;9396;51.510;11.934;2022-12-07T00:31:19;100389.25;;;2.99;100.00
18533;BME280;9396;51.510;11.934;2022-12-07T00:33:47;100377.91;;;2.86;100.00
18533;BME280;9396;51.510;11.934;2022-12-07T00:36:15;100373.50;;;2.99;100.00
18533;BME280;9396;51.510;11.934;2022-12-07T00:38:42;100371.06;;;2.96;100.00
18533;BME280;9396;51.510;11.934;2022-12-07T00:41:11;100371.06;;;2.71;100.00
18533;BME280;9396;51.510;11.934;2022-12-07T00:43:38;100361.81;;;2.90;100.00
18533;BME280;9396;51.510;11.934;2022-12-07T00:46:05;100361.91;;;3.01;100.00
18533;BME280;9396;51.510;11.934;2022-12-07T00:48:33;100364.78;;;2.86;100.00
18533;BME280;9396;51.510;11.934;2022-12-07T00:51:00;100358.88;;;2.57;100.00
18533;BME280;9396;51.510;11.934;2022-12-07T00:53:27;100353.94;;;2.78;100.00
18533;BME280;9396;51.510;11.934;2022-12-07T00:55:54;100357.63;;;2.88;100.00
18533;BME280;9396;51.510;11.934;2022-12-07T00:58:21;100364.56;;;2.89;100.00
18533;BME280;9396;51.510;11.934;2022-12-07T01:00:48;100368.53;;;2.57;100.00
18533;BME280;9396;51.510;11.934;2022-12-07T01:03:15;100367.00;;;2.67;100.00
18533;BME280;9396;51.510;11.934;2022-12-07T01:05:50;100366.53;;;2.60;100.00
18533;BME280;9396;51.510;11.934;2022-12-07T01:08:17;100370.94;;;2.35;100.00
18533;BME280;9396;51.510;11.934;2022-12-07T01:10:45;100367.53;;;2.07;100.00
18533;BME280;9396;51.510;11.934;2022-12-07T01:13:11;100363.41;;;2.03;100.00
18533;BME280;9396;51.510;11.934;2022-12-07T01:15:39;100352.84;;;2.17;100.00
18533;BME280;9396;51.510;11.934;2022-12-07T01:18:06;100354.56;;;2.31;100.00
18533;BME280;9396;51.510;11.934;2022-12-07T01:20:32;100356.41;;;2.04;100.00
18533;BME280;9396;51.510;11.934;2022-12-07T01:23:00;100363.56;;;2.14;100.00
18533;BME280;9396;51.510;11.934;2022-12-07T01:25:27;100357.69;;;2.11;100.00
18533;BME280;9396;51.510;11.934;2022-12-07T01:27:53;100356.66;;;2.39;100.00
18533;BME280;9396;51.510;11.934;2022-12-07T01:30:20;100352.59;;;2.35;100.00
18533;BME280;9396;51.510;11.934;2022-12-07T01:32:47;100350.44;;;2.14;100.00
18533;BME280;9396;51.510;11.934;2022-12-07T01:35:13;100333.13;;;2.12;100.00
18533;BME280;9396;51.510;11.934;2022-12-07T01:37:40;100337.31;;;2.14;100.00
18533;BME280;9396;51.510;11.934;2022-12-07T01:40:10;100332.41;;;2.10;100.00
18533;BME280;9396;51.510;11.934;2022-12-07T01:42:37;100325.31;;;1.98;100.00
18533;BME280;9396;51.510;11.934;2022-12-07T01:45:38;100323.03;;;1.93;100.00
18533;BME280;9396;51.510;11.934;2022-12-07T01:48:06;100324.53;;;1.83;100.00
18533;BME280;9396;51.510;11.934;2022-12-07T01:50:35;100317.78;;;1.93;100.00
18533;BME280;9396;51.510;11.934;2022-12-07T01:53:05;100321.13;;;1.95;100.00
18533;BME280;9396;51.510;11.934;2022-12-07T01:55:36;100318.59;;;1.81;100.00
18533;BME280;9396;51.510;11.934;2022-12-07T01:58:04;100326.94;;;1.74;100.00
18533;BME280;9396;51.510;11.934;2022-12-07T02:00:31;100311.03;;;1.89;100.00
18533;BME280;9396;51.510;11.934;2022-12-07T02:03:03;100309.81;;;1.95;100.00
18533;BME280;9396;51.510;11.934;2022-12-07T02:05:32;100303.81;;;1.93;100.00
18533;BME280;9396;51.510;11.934;2022-12-07T02:08:00;100312.75;;;2.03;100.00
18533;BME280;9396;51.510;11.934;2022-12-07T02:10:28;100311.94;;;2.15;100.00
18533;BME280;9396;51.510;11.934;2022-12-07T02:12:58;100306.34;;;2.07;100.00
18533;BME280;9396;51.510;11.934;2022-12-07T02:15:30;100261.25;;;2.14;100.00
18533;BME280;9396;51.510;11.934;2022-12-07T02:18:06;100286.75;;;2.50;100.00
18533;BME280;9396;51.510;11.934;2022-12-07T02:20:37;100285.50;;;2.68;100.00
18533;BME280;9396;51.510;11.934;2022-12-07T02:23:31;100290.06;;;2.90;100.00
18533;BME280;9396;51.510;11.934;2022-12-07T02:26:23;100290.47;;;2.96;100.00
18533;BME280;9396;51.510;11.934;2022-12-07T02:29:10;100283.88;;;2.91;100.00
18533;BME280;9396;51.510;11.934;2022-12-07T02:31:43;100280.50;;;2.89;100.00
18533;BME280;9396;51.510;11.934;2022-12-07T02:34:19;100280.16;;;3.06;100.00
18533;BME280;9396;51.510;11.934;2022-12-07T02:36:54;100276.97;;;3.13;100.00
18533;BME280;9396;51.510;11.934;2022-12-07T02:39:26;100267.06;;;3.17;100.00
18533;BME280;9396;51.510;11.934;2022-12-07T02:41:59;100259.09;;;3.18;100.00
18533;BME280;9396;51.510;11.934;2022-12-07T02:44:30;100256.78;;;3.14;100.00
18533;BME280;9396;51.510;11.934;2022-12-07T02:47:01;100255.56;;;3.07;100.00
18533;BME280;9396;51.510;11.934;2022-12-07T02:49:29;100210.25;;;2.80;100.00
18533;BME280;9396;51.510;11.934;2022-12-07T02:51:56;100253.66;;;3.09;100.00
18533;BME280;9396;51.510;11.934;2022-12-07T02:54:23;100254.34;;;2.87;100.00
18533;BME280;9396;51.510;11.934;2022-12-07T02:56:53;100245.34;;;2.79;100.00
18533;BME280;9396;51.510;11.934;2022-12-07T02:59:31;100247.09;;;2.91;100.00
18533;BME280;9396;51.510;11.934;2022-12-07T03:02:08;100237.84;;;2.85;100.00
18533;BME280;9396;51.510;11.934;2022-12-07T03:04:45;100243.44;;;2.81;100.00
18533;BME280;9396;51.510;11.934;2022-12-07T03:07:30;100238.50;;;2.76;100.00
18533;BME280;9396;51.510;11.934;2022-12-07T03:10:03;100229.63;;;2.54;100.00
18533;BME280;9396;51.510;11.934;2022-12-07T03:12:39;100240.34;;;2.63;100.00
18533;BME280;9396;51.510;11.934;2022-12-07T03:15:14;100249.91;;;2.52;100.00
18533;BME280;9396;51.510;11.934;2022-12-07T03:17:44;100247.13;;;2.78;100.00
18533;BME280;9396;51.510;11.934;2022-12-07T03:20:13;100250.03;;;2.99;100.00
18533;BME280;9396;51.510;11.934;2022-12-07T03:22:43;100245.31;;;2.91;100.00
18533;BME280;9396;51.510;11.934;2022-12-07T03:25:15;100247.50;;;2.85;100.00
18533;BME280;9396;51.510;11.934;2022-12-07T03:27:46;100254.69;;;2.83;100.00
18533;BME280;9396;51.510;11.934;2022-12-07T03:30:19;100250.72;;;3.01;100.00
18533;BME280;9396;51.510;11.934;2022-12-07T03:32:49;100255.13;;;3.13;100.00
18533;BME280;9396;51.510;11.934;2022-12-07T03:35:21;100247.97;;;3.15;100.00
18533;BME280;9396;51.510;11.934;2022-12-07T03:37:52;100249.34;;;3.08;100.00
18533;BME280;9396;51.510;11.934;2022-12-07T03:40:24;100233.88;;;3.16;100.00
18533;BME280;9396;51.510;11.934;2022-12-07T03:42:53;100235.09;;;3.23;100.00
18533;BME280;9396;51.510;11.934;2022-12-07T03:45:26;100231.06;;;3.30;100.00
18533;BME280;9396;51.510;11.934;2022-12-07T03:48:04;100233.47;;;3.33;100.00
18533;BME280;9396;51.510;11.934;2022-12-07T03:50:38;100225.72;;;3.32;100.00
18533;BME280;9396;51.510;11.934;2022-12-07T03:53:11;100227.72;;;3.28;100.00
18533;BME280;9396;51.510;11.934;2022-12-07T03:55:42;100214.41;;;3.42;100.00
18533;BME280;9396;51.510;11.934;2022-12-07T03:58:12;100209.13;;;3.31;100.00
18533;BME280;9396;51.510;11.934;2022-12-07T04:00:42;100210.84;;;3.43;100.00
18533;BME280;9396;51.510;11.934;2022-12-07T04:03:09;100199.34;;;3.44;100.00
18533;BME280;9396;51.510;11.934;2022-12-07T04:05:37;100202.66;;;3.35;100.00
18533;BME280;9396;51.510;11.934;2022-12-07T04:08:04;100200.94;;;3.23;100.00
18533;BME280;9396;51.510;11.934;2022-12-07T04:10:31;100192.81;;;3.26;100.00
18533;BME280;9396;51.510;11.934;2022-12-07T04:12:58;100195.06;;;3.43;100.00
18533;BME280;9396;51.510;11.934;2022-12-07T04:15:24;100192.34;;;3.56;100.00
18533;BME280;9396;51.510;11.934;2022-12-07T04:17:52;100187.06;;;3.21;100.00
18533;BME280;9396;51.510;11.934;2022-12-07T04:20:20;100184.19;;;3.13;100.00
18533;BME280;9396;51.510;11.934;2022-12-07T04:22:46;100174.53;;;3.24;100.00
18533;BME280;9396;51.510;11.934;2022-12-07T04:25:13;100165.56;;;3.16;100.00
18533;BME280;9396;51.510;11.934;2022-12-07T04:27:40;100169.03;;;3.16;100.00
18533;BME280;9396;51.510;11.934;2022-12-07T04:30:07;100163.19;;;3.24;100.00
18533;BME280;9396;51.510;11.934;2022-12-07T04:32:34;100165.06;;;3.35;100.00
18533;BME280;9396;51.510;11.934;2022-12-07T04:35:02;100166.28;;;3.18;100.00
18533;BME280;9396;51.510;11.934;2022-12-07T04:37:29;100164.88;;;3.25;100.00
18533;BME280;9396;51.510;11.934;2022-12-07T04:39:56;100165.66;;;3.38;100.00
18533;BME280;9396;51.510;11.934;2022-12-07T04:42:22;100170.06;;;3.38;100.00
18533;BME280;9396;51.510;11.934;2022-12-07T04:44:49;100178.75;;;3.27;100.00
18533;BME280;9396;51.510;11.934;2022-12-07T04:47:16;100176.91;;;3.16;100.00
18533;BME280;9396;51.510;11.934;2022-12-07T04:49:43;100175.50;;;3.00;100.00
18533;BME280;9396;51.510;11.934;2022-12-07T04:52:11;100168.63;;;3.10;100.00
18533;BME280;9396;51.510;11.934;2022-12-07T04:54:37;100174.13;;;3.07;100.00
18533;BME280;9396;51.510;11.934;2022-12-07T04:57:04;100170.19;;;3.12;100.00
18533;BME280;9396;51.510;11.934;2022-12-07T04:59:31;100184.13;;;3.02;100.00
18533;BME280;9396;51.510;11.934;2022-12-07T05:01:57;100187.25;;;2.71;100.00
18533;BME280;9396;51.510;11.934;2022-12-07T05:04:24;100186.09;;;2.75;100.00
18533;BME280;9396;51.510;11.934;2022-12-07T05:06:51;100179.59;;;2.80;100.00
18533;BME280;9396;51.510;11.934;2022-12-07T05:09:19;100180.84;;;2.75;100.00
18533;BME280;9396;51.510;11.934;2022-12-07T05:11:45;100167.84;;;2.73;100.00
18533;BME280;9396;51.510;11.934;2022-12-07T05:14:15;100186.09;;;2.75;100.00
18533;BME280;9396;51.510;11.934;2022-12-07T05:16:43;100174.38;;;2.68;100.00
18533;BME280;9396;51.510;11.934;2022-12-07T05:19:11;100179.78;;;2.41;100.00
18533;BME280;9396;51.510;11.934;2022-12-07T05:21:38;100170.28;;;2.28;100.00
18533;BME280;9396;51.510;11.934;2022-12-07T05:24:06;100179.06;;;2.39;100.00
18533;BME280;9396;51.510;11.934;2022-12-07T05:26:34;100168.16;;;2.33;100.00
18533;BME280;9396;51.510;11.934;2022-12-07T05:29:01;100175.06;;;2.46;100.00
18533;BME280;9396;51.510;11.934;2022-12-07T05:31:28;100175.78;;;2.48;100.00
18533;BME280;9396;51.510;11.934;2022-12-07T05:33:54;100173.91;;;2.38;100.00
18533;BME280;9396;51.510;11.934;2022-12-07T05:36:22;100166.56;;;2.43;100.00
18533;BME280;9396;51.510;11.934;2022-12-07T05:38:49;100165.41;;;2.47;100.00
18533;BME280;9396;51.510;11.934;2022-12-07T05:41:17;100153.75;;;2.51;100.00
18533;BME280;9396;51.510;11.934;2022-12-07T05:44:03;100168.31;;;2.55;100.00
18533;BME280;9396;51.510;11.934;2022-12-07T05:46:30;100164.88;;;2.42;100.00
18533;BME280;9396;51.510;11.934;2022-12-07T05:48:57;100161.03;;;2.35;100.00
18533;BME280;9396;51.510;11.934;2022-12-07T05:51:23;100159.78;;;2.28;100.00
18533;BME280;9396;51.510;11.934;2022-12-07T05:53:50;100167.00;;;2.37;100.00
18533;BME280;9396;51.510;11.934;2022-12-07T05:56:17;100146.44;;;2.31;100.00
18533;BME280;9396;51.510;11.934;2022-12-07T05:58:43;100159.56;;;2.31;100.00
18533;BME280;9396;51.510;11.934;2022-12-07T06:01:29;100151.78;;;2.29;100.00
18533;BME280;9396;51.510;11.934;2022-12-07T06:03:55;100155.16;;;2.31;100.00
18533;BME280;9396;51.510;11.934;2022-12-07T06:06:22;100148.53;;;2.26;100.00
18533;BME280;9396;51.510;11.934;2022-12-07T06:08:48;100143.22;;;2.14;100.00
18533;BME280;9396;51.510;11.934;2022-12-07T06:11:15;100144.22;;;2.25;100.00
18533;BME280;9396;51.510;11.934;2022-12-07T06:13:59;100140.75;;;2.37;100.00
18533;BME280;9396;51.510;11.934;2022-12-07T06:16:26;100147.34;;;2.42;100.00
18533;BME280;9396;51.510;11.934;2022-12-07T06:18:54;100142.31;;;2.39;100.00
18533;BME280;9396;51.510;11.934;2022-12-07T06:21:20;100148.00;;;2.33;100.00
18533;BME280;9396;51.510;11.934;2022-12-07T06:23:47;100146.94;;;2.36;100.00
18533;BME280;9396;51.510;11.934;2022-12-07T06:26:14;100139.63;;;2.15;100.00
18533;BME280;9396;51.510;11.934;2022-12-07T06:28:40;100148.03;;;2.21;100.00
18533;BME280;9396;51.510;11.934;2022-12-07T06:31:07;100145.69;;;2.29;100.00
18533;BME280;9396;51.510;11.934;2022-12-07T06:33:34;100142.16;;;2.30;100.00
18533;BME280;9396;51.510;11.934;2022-12-07T06:36:02;100142.03;;;2.31;100.00
18533;BME280;9396;51.510;11.934;2022-12-07T06:38:29;100147.41;;;2.17;100.00
18533;BME280;9396;51.510;11.934;2022-12-07T06:40:55;100156.59;;;2.22;100.00
18533;BME280;9396;51.510;11.934;2022-12-07T06:43:22;100152.22;;;2.23;100.00
18533;BME280;9396;51.510;11.934;2022-12-07T06:45:48;100158.31;;;2.24;100.00
18533;BME280;9396;51.510;11.934;2022-12-07T06:48:16;100159.44;;;2.32;100.00
18533;BME280;9396;51.510;11.934;2022-12-07T06:50:44;100159.56;;;2.31;100.00
18533;BME280;9396;51.510;11.934;2022-12-07T06:53:12;100169.63;;;2.37;100.00
18533;BME280;9396;51.510;11.934;2022-12-07T06:55:38;100157.56;;;2.34;100.00
18533;BME280;9396;51.510;11.934;2022-12-07T06:58:05;100158.50;;;2.33;100.00
18533;BME280;9396;51.510;11.934;2022-12-07T07:00:32;100155.47;;;2.27;100.00
18533;BME280;9396;51.510;11.934;2022-12-07T07:03:00;100154.00;;;2.22;100.00
18533;BME280;9396;51.510;11.934;2022-12-07T07:05:26;100160.50;;;2.30;100.00
18533;BME280;9396;51.510;11.934;2022-12-07T07:07:53;100162.09;;;2.19;100.00
18533;BME280;9396;51.510;11.934;2022-12-07T07:10:21;100167.94;;;2.23;100.00
18533;BME280;9396;51.510;11.934;2022-12-07T07:12:48;100163.97;;;2.17;100.00
18533;BME280;9396;51.510;11.934;2022-12-07T07:15:14;100173.31;;;2.22;100.00
18533;BME280;9396;51.510;11.934;2022-12-07T07:17:41;100167.94;;;2.23;100.00
18533;BME280;9396;51.510;11.934;2022-12-07T07:20:08;100169.66;;;2.24;100.00
18533;BME280;9396;51.510;11.934;2022-12-07T07:22:35;100172.06;;;2.27;100.00
18533;BME280;9396;51.510;11.934;2022-12-07T07:25:02;100178.88;;;2.30;100.00
18533;BME280;9396;51.510;11.934;2022-12-07T07:27:30;100174.34;;;2.32;100.00
18533;BME280;9396;51.510;11.934;2022-12-07T07:29:57;100169.91;;;2.45;100.00
18533;BME280;9396;51.510;11.934;2022-12-07T07:32:23;100168.44;;;2.41;100.00
18533;BME280;9396;51.510;11.934;2022-12-07T07:34:50;100169.00;;;2.33;100.00
18533;BME280;9396;51.510;11.934;2022-12-07T07:37:17;100177.69;;;2.46;100.00
18533;BME280;9396;51.510;11.934;2022-12-07T07:39:44;100172.34;;;2.35;100.00
18533;BME280;9396;51.510;11.934;2022-12-07T07:42:11;100179.28;;;2.36;100.00
18533;BME280;9396;51.510;11.934;2022-12-07T07:44:39;100171.50;;;2.47;100.00
18533;BME280;9396;51.510;11.934;2022-12-07T07:47:05;100182.38;;;2.54;100.00
18533;BME280;9396;51.510;11.934;2022-12-07T07:49:32;100183.34;;;2.53;100.00
18533;BME280;9396;51.510;11.934;2022-12-07T07:51:59;100183.88;;;2.45;100.00
18533;BME280;9396;51.510;11.934;2022-12-07T07:54:25;100192.69;;;2.44;100.00
18533;BME280;9396;51.510;11.934;2022-12-07T07:56:52;100185.44;;;2.48;100.00
18533;BME280;9396;51.510;11.934;2022-12-07T07:59:19;100184.16;;;2.53;100.00
18533;BME280;9396;51.510;11.934;2022-12-07T08:01:47;100177.75;;;2.57;100.00
18533;BME280;9396;51.510;11.934;2022-12-07T08:04:13;100184.38;;;2.50;100.00
18533;BME280;9396;51.510;11.934;2022-12-07T08:06:40;100178.81;;;2.42;100.00
18533;BME280;9396;51.510;11.934;2022-12-07T08:09:08;100178.53;;;2.47;100.00
18533;BME280;9396;51.510;11.934;2022-12-07T08:11:34;100177.38;;;2.51;100.00
18533;BME280;9396;51.510;11.934;2022-12-07T08:14:01;100177.25;;;2.52;100.00
18533;BME280;9396;51.510;11.934;2022-12-07T08:16:28;100180.38;;;2.57;100.00
18533;BME280;9396;51.510;11.934;2022-12-07T08:18:56;100179.00;;;2.64;100.00
18533;BME280;9396;51.510;11.934;2022-12-07T08:21:22;100191.47;;;2.73;100.00
18533;BME280;9396;51.510;11.934;2022-12-07T08:23:49;100195.22;;;2.82;100.00
18533;BME280;9396;51.510;11.934;2022-12-07T08:26:16;100197.19;;;2.91;100.00
18533;BME280;9396;51.510;11.934;2022-12-07T08:28:43;100191.69;;;2.94;100.00
18533;BME280;9396;51.510;11.934;2022-12-07T08:31:12;100199.81;;;2.91;100.00
18533;BME280;9396;51.510;11.934;2022-12-07T08:33:39;100198.66;;;2.95;100.00
18533;BME280;9396;51.510;11.934;2022-12-07T08:36:10;100197.25;;;3.02;100.00
18533;BME280;9396;51.510;11.934;2022-12-07T08:38:38;100196.34;;;3.14;100.00
18533;BME280;9396;51.510;11.934;2022-12-07T08:41:06;100192.31;;;3.21;100.00
18533;BME280;9396;51.510;11.934;2022-12-07T08:43:33;100191.41;;;3.33;100.00
18533;BME280;9396;51.510;11.934;2022-12-07T08:46:06;100192.63;;;3.40;100.00
18533;BME280;9396;51.510;11.934;2022-12-07T08:48:37;100184.25;;;3.35;100.00
18533;BME280;9396;51.510;11.934;2022-12-07T08:51:05;100188.78;;;3.33;100.00
18533;BME280;9396;51.510;11.934;2022-12-07T08:53:34;100195.25;;;3.29;100.00
18533;BME280;9396;51.510;11.934;2022-12-07T08:56:01;100194.44;;;3.40;100.00
18533;BME280;9396;51.510;11.934;2022-12-07T08:58:28;100203.38;;;3.37;100.00
18533;BME280;9396;51.510;11.934;2022-12-07T09:00:55;100204.50;;;3.46;100.00
18533;BME280;9396;51.510;11.934;2022-12-07T09:03:21;100210.00;;;3.43;100.00
18533;BME280;9396;51.510;11.934;2022-12-07T09:05:48;100221.00;;;3.24;100.00
18533;BME280;9396;51.510;11.934;2022-12-07T09:08:15;100212.41;;;3.22;100.00
18533;BME280;9396;51.510;11.934;2022-12-07T09:10:43;100215.66;;;3.02;100.00
18533;BME280;9396;51.510;11.934;2022-12-07T09:13:10;100205.13;;;3.02;100.00
18533;BME280;9396;51.510;11.934;2022-12-07T09:15:37;100207.09;;;3.11;100.00
18533;BME280;9396;51.510;11.934;2022-12-07T09:18:04;100211.38;;;3.12;100.00
18533;BME280;9396;51.510;11.934;2022-12-07T09:20:30;100204.47;;;3.11;100.00
18533;BME280;9396;51.510;11.934;2022-12-07T09:22:57;100197.47;;;3.22;100.00
18533;BME280;9396;51.510;11.934;2022-12-07T09:25:24;100198.31;;;3.23;100.00
18533;BME280;9396;51.510;11.934;2022-12-07T09:27:56;100185.53;;;3.18;100.00
18533;BME280;9396;51.510;11.934;2022-12-07T09:30:23;100190.94;;;3.28;100.00
18533;BME280;9396;51.510;11.934;2022-12-07T09:32:51;100195.50;;;3.37;100.00
18533;BME280;9396;51.510;11.934;2022-12-07T09:35:18;100188.59;;;3.47;100.00
18533;BME280;9396;51.510;11.934;2022-12-07T09:37:45;100190.28;;;3.48;100.00
18533;BME280;9396;51.510;11.934;2022-12-07T09:40:12;100186.69;;;3.49;100.00
18533;BME280;9396;51.510;11.934;2022-12-07T09:42:42;100191.88;;;3.62;100.00
18533;BME280;9396;51.510;11.934;2022-12-07T09:45:15;100195.09;;;3.54;100.00
18533;BME280;9396;51.510;11.934;2022-12-07T09:47:43;100189.13;;;3.52;100.00
18533;BME280;9396;51.510;11.934;2022-12-07T09:50:14;100179.34;;;3.54;100.00
18533;BME280;9396;51.510;11.934;2022-12-07T09:52:43;100182.09;;;3.64;100.00
18533;BME280;9396;51.510;11.934;2022-12-07T09:55:15;100190.53;;;3.56;100.00
18533;BME280;9396;51.510;11.934;2022-12-07T09:57:43;100187.50;;;3.73;100.00
18533;BME280;9396;51.510;11.934;2022-12-07T10:00:15;100183.88;;;3.63;100.00
18533;BME280;9396;51.510;11.934;2022-12-07T10:02:43;100175.50;;;3.58;100.00
18533;BME280;9396;51.510;11.934;2022-12-07T10:05:13;100183.25;;;3.60;100.00
18533;BME280;9396;51.510;11.934;2022-12-07T10:07:40;100180.19;;;3.66;100.00
18533;BME280;9396;51.510;11.934;2022-12-07T10:10:15;100180.19;;;3.66;100.00
18533;BME280;9396;51.510;11.934;2022-12-07T10:12:53;100176.75;;;3.76;100.00
18533;BME280;9396;51.510;11.934;2022-12-07T10:15:21;100174.00;;;3.78;100.00
18533;BME280;9396;51.510;11.934;2022-12-07T10:17:49;100163.13;;;3.71;100.00
18533;BME280;9396;51.510;11.934;2022-12-07T10:20:20;100172.44;;;3.86;100.00
18533;BME280;9396;51.510;11.934;2022-12-07T10:23:04;100168.16;;;3.85;100.00
18533;BME280;9396;51.510;11.934;2022-12-07T10:25:32;100171.25;;;3.79;100.00
18533;BME280;9396;51.510;11.934;2022-12-07T10:28:11;100169.94;;;3.85;100.00
18533;BME280;9396;51.510;11.934;2022-12-07T10:30:56;100168.41;;;3.93;100.00
18533;BME280;9396;51.510;11.934;2022-12-07T10:33:33;100171.41;;;4.00;100.00
18533;BME280;9396;51.510;11.934;2022-12-07T10:36:16;100171.06;;;3.93;100.00
18533;BME280;9396;51.510;11.934;2022-12-07T10:38:45;100164.47;;;3.88;100.00
18533;BME280;9396;51.510;11.934;2022-12-07T10:41:12;100163.75;;;3.86;100.00
18533;BME280;9396;51.510;11.934;2022-12-07T10:43:47;100167.69;;;3.91;100.00
18533;BME280;9396;51.510;11.934;2022-12-07T10:46:43;100158.81;;;3.81;100.00
18533;BME280;9396;51.510;11.934;2022-12-07T10:52:29;100161.72;;;4.00;100.00
18533;BME280;9396;51.510;11.934;2022-12-07T10:55:11;100157.06;;;3.93;100.00
18533;BME280;9396;51.510;11.934;2022-12-07T10:57:49;100160.75;;;3.90;100.00
18533;BME280;9396;51.510;11.934;2022-12-07T11:00:21;100161.47;;;3.92;100.00
18533;BME280;9396;51.510;11.934;2022-12-07T11:03:15;100152.00;;;3.90;100.00
18533;BME280;9396;51.510;11.934;2022-12-07T11:05:48;100144.97;;;4.01;100.00
18533;BME280;9396;51.510;11.934;2022-12-07T11:08:24;100146.88;;;3.99;100.00
18533;BME280;9396;51.510;11.934;2022-12-07T11:10:59;100148.31;;;3.92;100.00
18533;BME280;9396;51.510;11.934;2022-12-07T11:13:29;100148.06;;;3.95;100.00
18533;BME280;9396;51.510;11.934;2022-12-07T11:16:12;100150.81;;;3.94;100.00
18533;BME280;9396;51.510;11.934;2022-12-07T11:18:51;100145.69;;;3.92;100.00
18533;BME280;9396;51.510;11.934;2022-12-07T11:21:24;100150.94;;;3.92;100.00
18533;BME280;9396;51.510;11.934;2022-12-07T11:23:58;100154.06;;;3.97;100.00
18533;BME280;9396;51.510;11.934;2022-12-07T11:26:45;100147.72;;;4.00;100.00
18533;BME280;9396;51.510;11.934;2022-12-07T11:29:31;100150.13;;;4.03;100.00
18533;BME280;9396;51.510;11.934;2022-12-07T11:32:10;100142.09;;;4.04;100.00
18533;BME280;9396;51.510;11.934;2022-12-07T11:34:49;100145.84;;;4.13;100.00
18533;BME280;9396;51.510;11.934;2022-12-07T11:37:21;100146.16;;;4.08;100.00
18533;BME280;9396;51.510;11.934;2022-12-07T11:39:54;100144.50;;;4.07;100.00
18533;BME280;9396;51.510;11.934;2022-12-07T11:42:24;100143.41;;;4.10;100.00
18533;BME280;9396;51.510;11.934;2022-12-07T11:44:55;100137.31;;;4.09;100.00
18533;BME280;9396;51.510;11.934;2022-12-07T11:47:28;100138.03;;;4.22;100.00
18533;BME280;9396;51.510;11.934;2022-12-07T11:50:03;100142.44;;;4.22;100.00
18533;BME280;9396;51.510;11.934;2022-12-07T11:52:48;100133.75;;;4.32;100.00
18533;BME280;9396;51.510;11.934;2022-12-07T11:55:19;100134.44;;;4.46;100.00
18533;BME280;9396;51.510;11.934;2022-12-07T11:57:53;100132.38;;;4.38;100.00
18533;BME280;9396;51.510;11.934;2022-12-07T12:00:23;100132.25;;;4.51;100.00
18533;BME280;9396;51.510;11.934;2022-12-07T12:02:55;100130.00;;;4.57;100.00
18533;BME280;9396;51.510;11.934;2022-12-07T12:05:26;100118.34;;;4.60;100.00
18533;BME280;9396;51.510;11.934;2022-12-07T12:08:00;100122.22;;;4.56;100.00
18533;BME280;9396;51.510;11.934;2022-12-07T12:10:37;100117.50;;;4.70;100.00
18533;BME280;9396;51.510;11.934;2022-12-07T12:13:27;100124.59;;;4.59;100.00
18533;BME280;9396;51.510;11.934;2022-12-07T12:16:08;100125.53;;;4.58;100.00
18533;BME280;9396;51.510;11.934;2022-12-07T12:18:57;100116.19;;;4.65;100.00
18533;BME280;9396;51.510;11.934;2022-12-07T12:21:32;100115.84;;;4.58;100.00
18533;BME280;9396;51.510;11.934;2022-12-07T12:24:02;100111.88;;;4.64;100.00
18533;BME280;9396;51.510;11.934;2022-12-07T12:26:33;100108.66;;;4.60;100.00
18533;BME280;9396;51.510;11.934;2022-12-07T12:29:04;100108.78;;;4.59;100.00
18533;BME280;9396;51.510;11.934;2022-12-07T12:31:35;100111.78;;;4.54;100.00
18533;BME280;9396;51.510;11.934;2022-12-07T12:34:04;100043.06;;;4.14;100.00
18533;BME280;9396;51.510;11.934;2022-12-07T12:36:46;100107.09;;;4.58;100.00
18533;BME280;9396;51.510;11.934;2022-12-07T12:39:14;100109.75;;;4.58;100.00
18533;BME280;9396;51.510;11.934;2022-12-07T12:41:53;100095.03;;;4.66;100.00
18533;BME280;9396;51.510;11.934;2022-12-07T12:50:30;100094.66;;;4.60;100.00
18533;BME280;9396;51.510;11.934;2022-12-07T12:53:05;100087.22;;;4.65;100.00
18533;BME280;9396;51.510;11.934;2022-12-07T12:56:14;100092.84;;;4.71;100.00
18533;BME280;9396;51.510;11.934;2022-12-07T12:58:47;100092.22;;;4.79;100.00
18533;BME280;9396;51.510;11.934;2022-12-07T13:01:44;100095.84;;;4.67;100.00
18533;BME280;9396;51.510;11.934;2022-12-07T13:04:40;100085.28;;;4.67;100.00
18533;BME280;9396;51.510;11.934;2022-12-07T13:10:26;100089.66;;;4.57;100.00
18533;BME280;9396;51.510;11.934;2022-12-07T13:12:57;100091.44;;;4.56;100.00
18533;BME280;9396;51.510;11.934;2022-12-07T13:15:36;100092.16;;;4.58;100.00
18533;BME280;9396;51.510;11.934;2022-12-07T13:18:23;100087.38;;;4.52;100.00
18533;BME280;9396;51.510;11.934;2022-12-07T13:20:52;100087.72;;;4.59;100.00